PWSweather.com
Personal Weather Stations
Station Observations
DW6359
Southwest Cambria, Cambria, WI 53923

Southwest CambriaCambria, WI 53923

Lat: 43.541194, Lon: -89.11275

Elevation: 945

Station Type: Davis Vantage Pro2

http://home.centurytel.net/weathercambria/wxcambria.html

High Low Average
Temperature 8.5°F-13.1°C -9.7°F-23.2°C -0.2°F-17.9°C
Dew Point -1.9°F-18.8°C -13.7°F-25.4°C -6.8°F-21.6°C
Winds 12.0 mph 19.3 kmh Calm Calm 3.0 mph NW4.8 kmh NW
Wind Gusts 13.0 mph20.9 kmh -- 1.0 mph1.6 kmh
Humidity 84% 59% 73%
Pressure 30.69 in1039.3 mb 30.50 in1032.8 mb -
Precipitation 0.00 in0.0 mm - -
Hour Temp Dew Point Humidity Winds Wind Gusts Pressure Precip Precip Rate Daily Precip Total
12:00 AM 0.0°F-17.8°C -5.5°F-20.8°C 77% 3.0 mph WNW4.8 kmh WNW -- 30.49 in1032.5 mb 0.00 in0.0 mm 0.00 in0.0 mm 0.00 in0.0 mm
12:05 AM -0.2°F-17.9°C -5.7°F-20.9°C 77% 5.0 mph WNW8.0 kmh WNW -- 30.49 in1032.5 mb 0.00 in0.0 mm 0.00 in0.0 mm 0.00 in0.0 mm
12:10 AM -0.2°F-17.9°C -5.7°F-20.9°C 77% 3.0 mph WNW4.8 kmh WNW -- 30.49 in1032.5 mb 0.00 in0.0 mm 0.00 in0.0 mm 0.00 in0.0 mm
12:15 AM -0.4°F-18.0°C -5.9°F-21.1°C 77% 4.0 mph WNW6.4 kmh WNW -- 30.50 in1032.8 mb 0.00 in0.0 mm 0.00 in0.0 mm 0.00 in0.0 mm
12:20 AM -0.4°F-18.0°C -5.9°F-21.1°C 77% 3.0 mph WNW4.8 kmh WNW 5.0 mph8.0 kmh 30.50 in1032.8 mb 0.00 in0.0 mm 0.00 in0.0 mm 0.00 in0.0 mm
12:25 AM -0.6°F-18.1°C -6.1°F-21.2°C 77% 2.0 mph WNW3.2 kmh WNW 5.0 mph8.0 kmh 30.49 in1032.5 mb 0.00 in0.0 mm 0.00 in0.0 mm 0.00 in0.0 mm
12:30 AM -0.8°F-18.2°C -6.2°F-21.2°C 77% 3.0 mph WNW4.8 kmh WNW -- 30.50 in1032.8 mb 0.00 in0.0 mm 0.00 in0.0 mm 0.00 in0.0 mm
12:35 AM -0.9°F-18.3°C -6.1°F-21.2°C 78% 4.0 mph WNW6.4 kmh WNW -- 30.50 in1032.8 mb 0.00 in0.0 mm 0.00 in0.0 mm 0.00 in0.0 mm
12:40 AM -1.0°F-18.3°C -6.2°F-21.2°C 78% 4.0 mph WNW6.4 kmh WNW -- 30.50 in1032.8 mb 0.00 in0.0 mm 0.00 in0.0 mm 0.00 in0.0 mm
12:45 AM -1.1°F-18.4°C -6.3°F-21.3°C 78% 4.0 mph WNW6.4 kmh WNW -- 30.50 in1032.8 mb 0.00 in0.0 mm 0.00 in0.0 mm 0.00 in0.0 mm
12:50 AM -1.0°F-18.3°C -6.2°F-21.2°C 78% 4.0 mph WNW6.4 kmh WNW -- 30.50 in1032.8 mb 0.00 in0.0 mm 0.00 in0.0 mm 0.00 in0.0 mm
12:55 AM -1.1°F-18.4°C -6.3°F-21.3°C 78% 3.0 mph WNW4.8 kmh WNW -- 30.50 in1032.8 mb 0.00 in0.0 mm 0.00 in0.0 mm 0.00 in0.0 mm
01:00 AM -1.3°F-18.5°C -6.5°F-21.4°C 78% 2.0 mph WNW3.2 kmh WNW -- 30.50 in1032.8 mb 0.00 in0.0 mm 0.00 in0.0 mm 0.00 in0.0 mm
01:05 AM -1.5°F-18.6°C -6.7°F-21.5°C 78% 3.0 mph WNW4.8 kmh WNW -- 30.50 in1032.8 mb 0.00 in0.0 mm 0.00 in0.0 mm 0.00 in0.0 mm
01:10 AM -1.6°F-18.7°C -6.8°F-21.6°C 78% 2.0 mph WNW3.2 kmh WNW 5.0 mph8.0 kmh 30.50 in1032.8 mb 0.00 in0.0 mm 0.00 in0.0 mm 0.00 in0.0 mm
01:15 AM -1.6°F-18.7°C -6.5°F-21.4°C 79% 4.0 mph WNW6.4 kmh WNW 5.0 mph8.0 kmh 30.50 in1032.8 mb 0.00 in0.0 mm 0.00 in0.0 mm 0.00 in0.0 mm
01:20 AM -1.7°F-18.7°C -6.6°F-21.4°C 79% 2.0 mph WNW3.2 kmh WNW -- 30.50 in1032.8 mb 0.00 in0.0 mm 0.00 in0.0 mm 0.00 in0.0 mm
01:25 AM -1.8°F-18.8°C -6.7°F-21.5°C 79% Calm Calm -- 30.50 in1032.8 mb 0.00 in0.0 mm 0.00 in0.0 mm 0.00 in0.0 mm
01:30 AM -1.9°F-18.8°C -6.8°F-21.6°C 79% 2.0 mph WNW3.2 kmh WNW -- 30.50 in1032.8 mb 0.00 in0.0 mm 0.00 in0.0 mm 0.00 in0.0 mm
01:35 AM -2.2°F-19.0°C -7.1°F-21.7°C 79% 3.0 mph WNW4.8 kmh WNW -- 30.50 in1032.8 mb 0.00 in0.0 mm 0.00 in0.0 mm 0.00 in0.0 mm
01:40 AM -2.5°F-19.2°C -7.4°F-21.9°C 79% 1.0 mph WNW1.6 kmh WNW -- 30.50 in1032.8 mb 0.00 in0.0 mm 0.00 in0.0 mm 0.00 in0.0 mm
01:45 AM -2.7°F-19.3°C -7.6°F-22.0°C 79% 2.0 mph WNW3.2 kmh WNW -- 30.50 in1032.8 mb 0.00 in0.0 mm 0.00 in0.0 mm 0.00 in0.0 mm
01:50 AM -2.8°F-19.3°C -7.7°F-22.1°C 79% 2.0 mph WNW3.2 kmh WNW -- 30.50 in1032.8 mb 0.00 in0.0 mm 0.00 in0.0 mm 0.00 in0.0 mm
01:55 AM -3.0°F-19.4°C -7.9°F-22.2°C 79% 1.0 mph WNW1.6 kmh WNW -- 30.50 in1032.8 mb 0.00 in0.0 mm 0.00 in0.0 mm 0.00 in0.0 mm
02:00 AM -3.1°F-19.5°C -7.7°F-22.1°C 80% 2.0 mph WNW3.2 kmh WNW 3.0 mph4.8 kmh 30.50 in1032.8 mb 0.00 in0.0 mm 0.00 in0.0 mm 0.00 in0.0 mm
02:05 AM -3.1°F-19.5°C -7.7°F-22.1°C 80% 1.0 mph WNW1.6 kmh WNW 3.0 mph4.8 kmh 30.50 in1032.8 mb 0.00 in0.0 mm 0.00 in0.0 mm 0.00 in0.0 mm
02:10 AM -3.4°F-19.7°C -8.0°F-22.2°C 80% 1.0 mph WNW1.6 kmh WNW -- 30.50 in1032.8 mb 0.00 in0.0 mm 0.00 in0.0 mm 0.00 in0.0 mm
02:15 AM -3.6°F-19.8°C -8.2°F-22.3°C 80% 1.0 mph WNW1.6 kmh WNW -- 30.50 in1032.8 mb 0.00 in0.0 mm 0.00 in0.0 mm 0.00 in0.0 mm
02:20 AM -3.6°F-19.8°C -8.2°F-22.3°C 80% 2.0 mph WNW3.2 kmh WNW -- 30.50 in1032.8 mb 0.00 in0.0 mm 0.00 in0.0 mm 0.00 in0.0 mm
02:25 AM -3.5°F-19.7°C -7.8°F-22.1°C 81% 1.0 mph WNW1.6 kmh WNW -- 30.50 in1032.8 mb 0.00 in0.0 mm 0.00 in0.0 mm 0.00 in0.0 mm
02:30 AM -3.4°F-19.7°C -7.7°F-22.1°C 81% 3.0 mph WNW4.8 kmh WNW -- 30.50 in1032.8 mb 0.00 in0.0 mm 0.00 in0.0 mm 0.00 in0.0 mm
02:35 AM -3.5°F-19.7°C -7.8°F-22.1°C 81% 3.0 mph WNW4.8 kmh WNW -- 30.50 in1032.8 mb 0.00 in0.0 mm 0.00 in0.0 mm 0.00 in0.0 mm
02:40 AM -3.5°F-19.7°C -7.8°F-22.1°C 81% 2.0 mph WNW3.2 kmh WNW -- 30.50 in1032.8 mb 0.00 in0.0 mm 0.00 in0.0 mm 0.00 in0.0 mm
02:45 AM -3.5°F-19.7°C -7.8°F-22.1°C 81% 3.0 mph WNW4.8 kmh WNW -- 30.50 in1032.8 mb 0.00 in0.0 mm 0.00 in0.0 mm 0.00 in0.0 mm
02:50 AM -3.7°F-19.8°C -8.0°F-22.2°C 81% 2.0 mph WNW3.2 kmh WNW 4.0 mph6.4 kmh 30.50 in1032.8 mb 0.00 in0.0 mm 0.00 in0.0 mm 0.00 in0.0 mm
02:55 AM -3.8°F-19.9°C -8.1°F-22.3°C 81% 2.0 mph WNW3.2 kmh WNW 4.0 mph6.4 kmh 30.50 in1032.8 mb 0.00 in0.0 mm 0.00 in0.0 mm 0.00 in0.0 mm
03:00 AM -4.0°F-20.0°C -8.3°F-22.4°C 81% 1.0 mph WNW1.6 kmh WNW -- 30.51 in1033.2 mb 0.00 in0.0 mm 0.00 in0.0 mm 0.00 in0.0 mm
03:05 AM -4.1°F-20.1°C -8.4°F-22.4°C 81% Calm Calm -- 30.51 in1033.2 mb 0.00 in0.0 mm 0.00 in0.0 mm 0.00 in0.0 mm
03:10 AM -4.3°F-20.2°C -8.6°F-22.6°C 81% 2.0 mph WNW3.2 kmh WNW -- 30.51 in1033.2 mb 0.00 in0.0 mm 0.00 in0.0 mm 0.00 in0.0 mm
03:15 AM -4.7°F-20.4°C -9.0°F-22.8°C 81% 2.0 mph WNW3.2 kmh WNW -- 30.51 in1033.2 mb 0.00 in0.0 mm 0.00 in0.0 mm 0.00 in0.0 mm
03:20 AM -5.0°F-20.6°C -9.3°F-22.9°C 81% 1.0 mph WNW1.6 kmh WNW -- 30.52 in1033.5 mb 0.00 in0.0 mm 0.00 in0.0 mm 0.00 in0.0 mm
03:25 AM -5.4°F-20.8°C -9.7°F-23.2°C 81% 2.0 mph WNW3.2 kmh WNW -- 30.52 in1033.5 mb 0.00 in0.0 mm 0.00 in0.0 mm 0.00 in0.0 mm
03:30 AM -5.7°F-20.9°C -10.0°F-23.3°C 81% 1.0 mph WNW1.6 kmh WNW -- 30.52 in1033.5 mb 0.00 in0.0 mm 0.00 in0.0 mm 0.00 in0.0 mm
03:35 AM -5.9°F-21.1°C -10.2°F-23.4°C 81% Calm Calm -- 30.52 in1033.5 mb 0.00 in0.0 mm 0.00 in0.0 mm 0.00 in0.0 mm
03:40 AM -6.1°F-21.2°C -10.4°F-23.6°C 81% 1.0 mph WNW1.6 kmh WNW 3.0 mph4.8 kmh 30.52 in1033.5 mb 0.00 in0.0 mm 0.00 in0.0 mm 0.00 in0.0 mm
03:45 AM -6.3°F-21.3°C -10.3°F-23.5°C 82% 1.0 mph WNW1.6 kmh WNW 3.0 mph4.8 kmh 30.52 in1033.5 mb 0.00 in0.0 mm 0.00 in0.0 mm 0.00 in0.0 mm
03:50 AM -6.5°F-21.4°C -10.5°F-23.6°C 82% 1.0 mph WNW1.6 kmh WNW -- 30.52 in1033.5 mb 0.00 in0.0 mm 0.00 in0.0 mm 0.00 in0.0 mm
03:55 AM -6.6°F-21.4°C -10.6°F-23.7°C 82% 2.0 mph WNW3.2 kmh WNW -- 30.52 in1033.5 mb 0.00 in0.0 mm 0.00 in0.0 mm 0.00 in0.0 mm
04:00 AM -6.8°F-21.6°C -10.8°F-23.8°C 82% 2.0 mph WNW3.2 kmh WNW -- 30.52 in1033.5 mb 0.00 in0.0 mm 0.00 in0.0 mm 0.00 in0.0 mm
04:05 AM -7.0°F-21.7°C -11.0°F-23.9°C 82% 1.0 mph WNW1.6 kmh WNW -- 30.52 in1033.5 mb 0.00 in0.0 mm 0.00 in0.0 mm 0.00 in0.0 mm
04:10 AM -7.2°F-21.8°C -11.2°F-24.0°C 82% 2.0 mph WNW3.2 kmh WNW -- 30.52 in1033.5 mb 0.00 in0.0 mm 0.00 in0.0 mm 0.00 in0.0 mm
04:15 AM -7.4°F-21.9°C -11.4°F-24.1°C 82% 1.0 mph WNW1.6 kmh WNW -- 30.52 in1033.5 mb 0.00 in0.0 mm 0.00 in0.0 mm 0.00 in0.0 mm
04:20 AM -7.6°F-22.0°C -11.6°F-24.2°C 82% 3.0 mph WNW4.8 kmh WNW -- 30.51 in1033.2 mb 0.00 in0.0 mm 0.00 in0.0 mm 0.00 in0.0 mm
04:25 AM -7.8°F-22.1°C -11.8°F-24.3°C 82% 2.0 mph WNW3.2 kmh WNW -- 30.52 in1033.5 mb 0.00 in0.0 mm 0.00 in0.0 mm 0.00 in0.0 mm
04:30 AM -8.0°F-22.2°C -12.0°F-24.4°C 82% 2.0 mph WNW3.2 kmh WNW 3.0 mph4.8 kmh 30.52 in1033.5 mb 0.00 in0.0 mm 0.00 in0.0 mm 0.00 in0.0 mm
04:35 AM -8.1°F-22.3°C -11.9°F-24.4°C 83% 2.0 mph WNW3.2 kmh WNW 3.0 mph4.8 kmh 30.52 in1033.5 mb 0.00 in0.0 mm 0.00 in0.0 mm 0.00 in0.0 mm
04:40 AM -8.3°F-22.4°C -12.1°F-24.5°C 83% 2.0 mph WNW3.2 kmh WNW -- 30.52 in1033.5 mb 0.00 in0.0 mm 0.00 in0.0 mm 0.00 in0.0 mm
04:45 AM -8.3°F-22.4°C -12.1°F-24.5°C 83% 2.0 mph WNW3.2 kmh WNW -- 30.52 in1033.5 mb 0.00 in0.0 mm 0.00 in0.0 mm 0.00 in0.0 mm
04:50 AM -8.4°F-22.4°C -12.1°F-24.5°C 83% 2.0 mph WNW3.2 kmh WNW -- 30.53 in1033.9 mb 0.00 in0.0 mm 0.00 in0.0 mm 0.00 in0.0 mm
04:55 AM -8.5°F-22.5°C -12.2°F-24.6°C 83% 2.0 mph WNW3.2 kmh WNW -- 30.53 in1033.9 mb 0.00 in0.0 mm 0.00 in0.0 mm 0.00 in0.0 mm
05:00 AM -8.8°F-22.7°C -12.8°F-24.9°C 82% 2.0 mph WNW3.2 kmh WNW -- 30.53 in1033.9 mb 0.00 in0.0 mm 0.00 in0.0 mm 0.00 in0.0 mm
05:05 AM -8.9°F-22.7°C -12.6°F-24.8°C 83% 2.0 mph WNW3.2 kmh WNW -- 30.53 in1033.9 mb 0.00 in0.0 mm 0.00 in0.0 mm 0.00 in0.0 mm
05:10 AM -9.0°F-22.8°C -12.7°F-24.8°C 83% 2.0 mph WNW3.2 kmh WNW -- 30.53 in1033.9 mb 0.00 in0.0 mm 0.00 in0.0 mm 0.00 in0.0 mm
05:15 AM -9.1°F-22.8°C -12.8°F-24.9°C 83% 3.0 mph WNW4.8 kmh WNW -- 30.53 in1033.9 mb 0.00 in0.0 mm 0.00 in0.0 mm 0.00 in0.0 mm
05:20 AM -9.1°F-22.8°C -12.8°F-24.9°C 83% 3.0 mph WNW4.8 kmh WNW 3.0 mph4.8 kmh 30.53 in1033.9 mb 0.00 in0.0 mm 0.00 in0.0 mm 0.00 in0.0 mm
05:25 AM -9.1°F-22.8°C -12.8°F-24.9°C 83% 2.0 mph WNW3.2 kmh WNW 3.0 mph4.8 kmh 30.53 in1033.9 mb 0.00 in0.0 mm 0.00 in0.0 mm 0.00 in0.0 mm
05:30 AM -9.2°F-22.9°C -12.9°F-24.9°C 83% 2.0 mph WNW3.2 kmh WNW -- 30.53 in1033.9 mb 0.00 in0.0 mm 0.00 in0.0 mm 0.00 in0.0 mm
05:35 AM -9.2°F-22.9°C -12.9°F-24.9°C 83% 1.0 mph WNW1.6 kmh WNW -- 30.53 in1033.9 mb 0.00 in0.0 mm 0.00 in0.0 mm 0.00 in0.0 mm
05:40 AM -9.2°F-22.9°C -12.9°F-24.9°C 83% 1.0 mph WNW1.6 kmh WNW -- 30.53 in1033.9 mb 0.00 in0.0 mm 0.00 in0.0 mm 0.00 in0.0 mm
05:45 AM -9.2°F-22.9°C -12.9°F-24.9°C 83% 1.0 mph WNW1.6 kmh WNW -- 30.53 in1033.9 mb 0.00 in0.0 mm 0.00 in0.0 mm 0.00 in0.0 mm
05:50 AM -9.3°F-22.9°C -13.0°F-25.0°C 83% 2.0 mph WNW3.2 kmh WNW -- 30.53 in1033.9 mb 0.00 in0.0 mm 0.00 in0.0 mm 0.00 in0.0 mm
05:55 AM -9.5°F-23.1°C -13.2°F-25.1°C 83% 2.0 mph WNW3.2 kmh WNW -- 30.53 in1033.9 mb 0.00 in0.0 mm 0.00 in0.0 mm 0.00 in0.0 mm
06:00 AM -9.7°F-23.2°C -13.4°F-25.2°C 83% 2.0 mph WNW3.2 kmh WNW -- 30.53 in1033.9 mb 0.00 in0.0 mm 0.00 in0.0 mm 0.00 in0.0 mm
06:05 AM -9.7°F-23.2°C -13.4°F-25.2°C 83% Calm Calm -- 30.53 in1033.9 mb 0.00 in0.0 mm 0.00 in0.0 mm 0.00 in0.0 mm
06:10 AM -9.7°F-23.2°C -13.4°F-25.2°C 83% Calm Calm 3.0 mph4.8 kmh 30.54 in1034.2 mb 0.00 in0.0 mm 0.00 in0.0 mm 0.00 in0.0 mm
06:15 AM -9.7°F-23.2°C -13.4°F-25.2°C 83% 2.0 mph WNW3.2 kmh WNW 3.0 mph4.8 kmh 30.54 in1034.2 mb 0.00 in0.0 mm 0.00 in0.0 mm 0.00 in0.0 mm
06:20 AM -9.7°F-23.2°C -13.7°F-25.4°C 82% 2.0 mph WNW3.2 kmh WNW -- 30.54 in1034.2 mb 0.00 in0.0 mm 0.00 in0.0 mm 0.00 in0.0 mm
06:25 AM -9.5°F-23.1°C -13.2°F-25.1°C 83% 2.0 mph WNW3.2 kmh WNW -- 30.54 in1034.2 mb 0.00 in0.0 mm 0.00 in0.0 mm 0.00 in0.0 mm
06:30 AM -9.4°F-23.0°C -13.1°F-25.1°C 83% 2.0 mph WNW3.2 kmh WNW -- 30.54 in1034.2 mb 0.00 in0.0 mm 0.00 in0.0 mm 0.00 in0.0 mm
06:35 AM -9.2°F-22.9°C -12.9°F-24.9°C 83% 1.0 mph WNW1.6 kmh WNW -- 30.55 in1034.5 mb 0.00 in0.0 mm 0.00 in0.0 mm 0.00 in0.0 mm
06:40 AM -8.9°F-22.7°C -12.6°F-24.8°C 83% 1.0 mph WNW1.6 kmh WNW -- 30.55 in1034.5 mb 0.00 in0.0 mm 0.00 in0.0 mm 0.00 in0.0 mm
06:45 AM -8.6°F-22.6°C -12.3°F-24.6°C 83% 1.0 mph WNW1.6 kmh WNW -- 30.55 in1034.5 mb 0.00 in0.0 mm 0.00 in0.0 mm 0.00 in0.0 mm
06:50 AM -8.3°F-22.4°C -12.1°F-24.5°C 83% 1.0 mph WNW1.6 kmh WNW -- 30.55 in1034.5 mb 0.00 in0.0 mm 0.00 in0.0 mm 0.00 in0.0 mm
06:55 AM -8.0°F-22.2°C -11.8°F-24.3°C 83% Calm Calm -- 30.55 in1034.5 mb 0.00 in0.0 mm 0.00 in0.0 mm 0.00 in0.0 mm
07:00 AM -7.6°F-22.0°C -11.4°F-24.1°C 83% Calm Calm 2.0 mph3.2 kmh 30.55 in1034.5 mb 0.00 in0.0 mm 0.00 in0.0 mm 0.00 in0.0 mm
07:05 AM -7.0°F-21.7°C -10.5°F-23.6°C 84% 1.0 mph WNW1.6 kmh WNW 2.0 mph3.2 kmh 30.55 in1034.5 mb 0.00 in0.0 mm 0.00 in0.0 mm 0.00 in0.0 mm
07:10 AM -6.3°F-21.3°C -9.8°F-23.2°C 84% 2.0 mph WNW3.2 kmh WNW -- 30.55 in1034.5 mb 0.00 in0.0 mm 0.00 in0.0 mm 0.00 in0.0 mm
07:15 AM -6.1°F-21.2°C -9.7°F-23.2°C 84% 2.0 mph WNW3.2 kmh WNW -- 30.56 in1034.9 mb 0.00 in0.0 mm 0.00 in0.0 mm 0.00 in0.0 mm
07:20 AM -5.8°F-21.0°C -9.6°F-23.1°C 83% 2.0 mph WNW3.2 kmh WNW -- 30.56 in1034.9 mb 0.00 in0.0 mm 0.00 in0.0 mm 0.00 in0.0 mm
07:25 AM -5.6°F-20.9°C -9.4°F-23.0°C 83% 1.0 mph WNW1.6 kmh WNW -- 30.56 in1034.9 mb 0.00 in0.0 mm 0.00 in0.0 mm 0.00 in0.0 mm
07:30 AM -5.4°F-20.8°C -9.2°F-22.9°C 83% Calm Calm -- 30.57 in1035.2 mb 0.00 in0.0 mm 0.00 in0.0 mm 0.00 in0.0 mm
07:35 AM -5.3°F-20.7°C -9.1°F-22.8°C 83% 1.0 mph WNW1.6 kmh WNW -- 30.56 in1034.9 mb 0.00 in0.0 mm 0.00 in0.0 mm 0.00 in0.0 mm
07:40 AM -5.1°F-20.6°C -8.9°F-22.7°C 83% Calm Calm -- 30.57 in1035.2 mb 0.00 in0.0 mm 0.00 in0.0 mm 0.00 in0.0 mm
07:45 AM -4.9°F-20.5°C -8.7°F-22.6°C 83% 1.0 mph WNW1.6 kmh WNW -- 30.57 in1035.2 mb 0.00 in0.0 mm 0.00 in0.0 mm 0.00 in0.0 mm
07:50 AM -4.6°F-20.3°C -8.4°F-22.4°C 83% 1.0 mph WNW1.6 kmh WNW 3.0 mph4.8 kmh 30.57 in1035.2 mb 0.00 in0.0 mm 0.00 in0.0 mm 0.00 in0.0 mm
07:55 AM -4.6°F-20.3°C -8.4°F-22.4°C 83% 2.0 mph WNW3.2 kmh WNW 3.0 mph4.8 kmh 30.57 in1035.2 mb 0.00 in0.0 mm 0.00 in0.0 mm 0.00 in0.0 mm
08:00 AM -4.6°F-20.3°C -8.4°F-22.4°C 83% 1.0 mph WNW1.6 kmh WNW -- 30.57 in1035.2 mb 0.00 in0.0 mm 0.00 in0.0 mm 0.00 in0.0 mm
08:05 AM -4.5°F-20.3°C -8.3°F-22.4°C 83% 4.0 mph WNW6.4 kmh WNW -- 30.57 in1035.2 mb 0.00 in0.0 mm 0.00 in0.0 mm 0.00 in0.0 mm
08:10 AM -4.6°F-20.3°C -8.4°F-22.4°C 83% 2.0 mph WNW3.2 kmh WNW -- 30.57 in1035.2 mb 0.00 in0.0 mm 0.00 in0.0 mm 0.00 in0.0 mm
08:15 AM -4.8°F-20.4°C -8.9°F-22.7°C 82% 2.0 mph WNW3.2 kmh WNW -- 30.57 in1035.2 mb 0.00 in0.0 mm 0.00 in0.0 mm 0.00 in0.0 mm
08:20 AM -4.9°F-20.5°C -9.0°F-22.8°C 82% 2.0 mph WNW3.2 kmh WNW -- 30.57 in1035.2 mb 0.00 in0.0 mm 0.00 in0.0 mm 0.00 in0.0 mm
08:25 AM -5.1°F-20.6°C -9.2°F-22.9°C 82% 3.0 mph WNW4.8 kmh WNW -- 30.57 in1035.2 mb 0.00 in0.0 mm 0.00 in0.0 mm 0.00 in0.0 mm
08:30 AM -5.2°F-20.7°C -9.3°F-22.9°C 82% 3.0 mph WNW4.8 kmh WNW -- 30.57 in1035.2 mb 0.00 in0.0 mm 0.00 in0.0 mm 0.00 in0.0 mm
08:35 AM -5.4°F-20.8°C -9.5°F-23.1°C 82% 2.0 mph WNW3.2 kmh WNW -- 30.58 in1035.6 mb 0.00 in0.0 mm 0.00 in0.0 mm 0.00 in0.0 mm
08:40 AM -5.5°F-20.8°C -9.6°F-23.1°C 82% 1.0 mph WNW1.6 kmh WNW 4.0 mph6.4 kmh 30.58 in1035.6 mb 0.00 in0.0 mm 0.00 in0.0 mm 0.00 in0.0 mm
08:45 AM -5.7°F-20.9°C -9.7°F-23.2°C 82% 2.0 mph WNW3.2 kmh WNW 4.0 mph6.4 kmh 30.58 in1035.6 mb 0.00 in0.0 mm 0.00 in0.0 mm 0.00 in0.0 mm
08:50 AM -5.9°F-21.1°C -9.9°F-23.3°C 82% 1.0 mph WNW1.6 kmh WNW -- 30.58 in1035.6 mb 0.00 in0.0 mm 0.00 in0.0 mm 0.00 in0.0 mm
08:55 AM -6.1°F-21.2°C -10.1°F-23.4°C 82% 3.0 mph WNW4.8 kmh WNW -- 30.58 in1035.6 mb 0.00 in0.0 mm 0.00 in0.0 mm 0.00 in0.0 mm
09:00 AM -6.2°F-21.2°C -10.2°F-23.4°C 82% 2.0 mph WNW3.2 kmh WNW -- 30.58 in1035.6 mb 0.00 in0.0 mm 0.00 in0.0 mm 0.00 in0.0 mm
09:05 AM -6.3°F-21.3°C -10.3°F-23.5°C 82% 3.0 mph WNW4.8 kmh WNW -- 30.59 in1035.9 mb 0.00 in0.0 mm 0.00 in0.0 mm 0.00 in0.0 mm
09:10 AM -6.5°F-21.4°C -10.5°F-23.6°C 82% 2.0 mph WNW3.2 kmh WNW -- 30.59 in1035.9 mb 0.00 in0.0 mm 0.00 in0.0 mm 0.00 in0.0 mm
09:15 AM -6.6°F-21.4°C -10.6°F-23.7°C 82% 2.0 mph WNW3.2 kmh WNW -- 30.59 in1035.9 mb 0.00 in0.0 mm 0.00 in0.0 mm 0.00 in0.0 mm
09:20 AM -6.6°F-21.4°C -10.6°F-23.7°C 82% 2.0 mph WNW3.2 kmh WNW -- 30.59 in1035.9 mb 0.00 in0.0 mm 0.00 in0.0 mm 0.00 in0.0 mm
09:25 AM -6.6°F-21.4°C -10.6°F-23.7°C 82% 3.0 mph WNW4.8 kmh WNW -- 30.59 in1035.9 mb 0.00 in0.0 mm 0.00 in0.0 mm 0.00 in0.0 mm
09:30 AM -6.6°F-21.4°C -10.6°F-23.7°C 82% 3.0 mph WNW4.8 kmh WNW 4.0 mph6.4 kmh 30.59 in1035.9 mb 0.00 in0.0 mm 0.00 in0.0 mm 0.00 in0.0 mm
09:35 AM -6.5°F-21.4°C -10.5°F-23.6°C 82% 2.0 mph WNW3.2 kmh WNW 4.0 mph6.4 kmh 30.59 in1035.9 mb 0.00 in0.0 mm 0.00 in0.0 mm 0.00 in0.0 mm
09:40 AM -6.4°F-21.3°C -10.4°F-23.6°C 82% 2.0 mph WNW3.2 kmh WNW -- 30.59 in1035.9 mb 0.00 in0.0 mm 0.00 in0.0 mm 0.00 in0.0 mm
09:45 AM -6.2°F-21.2°C -10.2°F-23.4°C 82% 2.0 mph WNW3.2 kmh WNW -- 30.60 in1036.2 mb 0.00 in0.0 mm 0.00 in0.0 mm 0.00 in0.0 mm
09:50 AM -6.0°F-21.1°C -10.0°F-23.3°C 82% 3.0 mph WNW4.8 kmh WNW -- 30.60 in1036.2 mb 0.00 in0.0 mm 0.00 in0.0 mm 0.00 in0.0 mm
09:55 AM -5.7°F-20.9°C -9.7°F-23.2°C 82% 1.0 mph WNW1.6 kmh WNW -- 30.60 in1036.2 mb 0.00 in0.0 mm 0.00 in0.0 mm 0.00 in0.0 mm
10:00 AM -5.4°F-20.8°C -9.2°F-22.9°C 83% 3.0 mph WNW4.8 kmh WNW -- 30.60 in1036.2 mb 0.00 in0.0 mm 0.00 in0.0 mm 0.00 in0.0 mm
10:05 AM -5.2°F-20.7°C -9.0°F-22.8°C 83% 2.0 mph WNW3.2 kmh WNW -- 30.60 in1036.2 mb 0.00 in0.0 mm 0.00 in0.0 mm 0.00 in0.0 mm
10:10 AM -5.0°F-20.6°C -8.8°F-22.7°C 83% 3.0 mph WNW4.8 kmh WNW -- 30.61 in1036.6 mb 0.00 in0.0 mm 0.00 in0.0 mm 0.00 in0.0 mm
10:15 AM -4.7°F-20.4°C -8.5°F-22.5°C 83% 3.0 mph WNW4.8 kmh WNW -- 30.61 in1036.6 mb 0.00 in0.0 mm 0.00 in0.0 mm 0.00 in0.0 mm
10:20 AM -4.3°F-20.2°C -8.1°F-22.3°C 83% 4.0 mph WSW6.4 kmh WSW 5.0 mph8.0 kmh 30.61 in1036.6 mb 0.00 in0.0 mm 0.00 in0.0 mm 0.00 in0.0 mm
10:25 AM -3.9°F-19.9°C -7.7°F-22.1°C 83% Calm Calm 5.0 mph8.0 kmh 30.61 in1036.6 mb 0.00 in0.0 mm 0.00 in0.0 mm 0.00 in0.0 mm
10:30 AM -3.4°F-19.7°C -7.2°F-21.8°C 83% 2.0 mph WSW3.2 kmh WSW -- 30.61 in1036.6 mb 0.00 in0.0 mm 0.00 in0.0 mm 0.00 in0.0 mm
10:35 AM -2.8°F-19.3°C -6.7°F-21.5°C 83% 3.0 mph W4.8 kmh W -- 30.61 in1036.6 mb 0.00 in0.0 mm 0.00 in0.0 mm 0.00 in0.0 mm
10:40 AM -2.3°F-19.1°C -6.2°F-21.2°C 83% 2.0 mph W3.2 kmh W -- 30.61 in1036.6 mb 0.00 in0.0 mm 0.00 in0.0 mm 0.00 in0.0 mm
10:45 AM -1.9°F-18.8°C -5.8°F-21.0°C 83% 2.0 mph W3.2 kmh W -- 30.62 in1036.9 mb 0.00 in0.0 mm 0.00 in0.0 mm 0.00 in0.0 mm
10:50 AM -1.3°F-18.5°C -5.2°F-20.7°C 83% 5.0 mph W8.0 kmh W -- 30.62 in1036.9 mb 0.00 in0.0 mm 0.00 in0.0 mm 0.00 in0.0 mm
10:55 AM -0.7°F-18.2°C -4.8°F-20.4°C 82% 7.0 mph WNW11.3 kmh WNW -- 30.62 in1036.9 mb 0.00 in0.0 mm 0.00 in0.0 mm 0.00 in0.0 mm
11:00 AM -0.5°F-18.1°C -4.9°F-20.5°C 81% 4.0 mph W6.4 kmh W -- 30.62 in1036.9 mb 0.00 in0.0 mm 0.00 in0.0 mm 0.00 in0.0 mm
11:05 AM -0.2°F-17.9°C -4.6°F-20.3°C 81% 3.0 mph NW4.8 kmh NW -- 30.61 in1036.6 mb 0.00 in0.0 mm 0.00 in0.0 mm 0.00 in0.0 mm
11:10 AM 0.2°F-17.7°C -4.5°F-20.3°C 80% 3.0 mph WNW4.8 kmh WNW 7.0 mph11.3 kmh 30.61 in1036.6 mb 0.00 in0.0 mm 0.00 in0.0 mm 0.00 in0.0 mm
11:15 AM 0.6°F-17.4°C -4.4°F-20.2°C 79% 2.0 mph NW3.2 kmh NW 7.0 mph11.3 kmh 30.61 in1036.6 mb 0.00 in0.0 mm 0.00 in0.0 mm 0.00 in0.0 mm
11:20 AM 1.1°F-17.2°C -3.9°F-19.9°C 79% 1.0 mph WNW1.6 kmh WNW -- 30.61 in1036.6 mb 0.00 in0.0 mm 0.00 in0.0 mm 0.00 in0.0 mm
11:25 AM 1.7°F-16.8°C -3.3°F-19.6°C 79% 4.0 mph WNW6.4 kmh WNW -- 30.61 in1036.6 mb 0.00 in0.0 mm 0.00 in0.0 mm 0.00 in0.0 mm
11:30 AM 2.0°F-16.7°C -3.5°F-19.7°C 77% 3.0 mph W4.8 kmh W -- 30.61 in1036.6 mb 0.00 in0.0 mm 0.00 in0.0 mm 0.00 in0.0 mm
11:35 AM 2.1°F-16.6°C -3.4°F-19.7°C 77% 6.0 mph WNW9.7 kmh WNW -- 30.61 in1036.6 mb 0.00 in0.0 mm 0.00 in0.0 mm 0.00 in0.0 mm
11:40 AM 2.4°F-16.4°C -3.1°F-19.5°C 77% 3.0 mph W4.8 kmh W -- 30.61 in1036.6 mb 0.00 in0.0 mm 0.00 in0.0 mm 0.00 in0.0 mm
11:45 AM 2.8°F-16.2°C -3.0°F-19.4°C 76% 6.0 mph NW9.7 kmh NW -- 30.61 in1036.6 mb 0.00 in0.0 mm 0.00 in0.0 mm 0.00 in0.0 mm
11:50 AM 3.4°F-15.9°C -2.4°F-19.1°C 76% 5.0 mph W8.0 kmh W -- 30.61 in1036.6 mb 0.00 in0.0 mm 0.00 in0.0 mm 0.00 in0.0 mm
11:55 AM 4.0°F-15.6°C -2.1°F-18.9°C 75% 4.0 mph NW6.4 kmh NW -- 30.60 in1036.2 mb 0.00 in0.0 mm 0.00 in0.0 mm 0.00 in0.0 mm
12:00 PM 4.2°F-15.4°C -2.2°F-19.0°C 74% 9.0 mph WNW14.5 kmh WNW 9.0 mph14.5 kmh 30.60 in1036.2 mb 0.00 in0.0 mm 0.00 in0.0 mm 0.00 in0.0 mm
12:05 PM 4.5°F-15.3°C -1.9°F-18.8°C 74% 1.0 mph WNW1.6 kmh WNW 9.0 mph14.5 kmh 30.60 in1036.2 mb 0.00 in0.0 mm 0.00 in0.0 mm 0.00 in0.0 mm
12:10 PM 4.8°F-15.1°C -1.9°F-18.8°C 73% 5.0 mph NNW8.0 kmh NNW -- 30.60 in1036.2 mb 0.00 in0.0 mm 0.00 in0.0 mm 0.00 in0.0 mm
12:15 PM 5.1°F-14.9°C -2.2°F-19.0°C 71% 2.0 mph NW3.2 kmh NW -- 30.60 in1036.2 mb 0.00 in0.0 mm 0.00 in0.0 mm 0.00 in0.0 mm
12:20 PM 5.3°F-14.8°C -2.3°F-19.1°C 70% 5.0 mph NNW8.0 kmh NNW -- 30.60 in1036.2 mb 0.00 in0.0 mm 0.00 in0.0 mm 0.00 in0.0 mm
12:25 PM 5.6°F-14.7°C -2.3°F-19.1°C 69% 5.0 mph N8.0 kmh N -- 30.60 in1036.2 mb 0.00 in0.0 mm 0.00 in0.0 mm 0.00 in0.0 mm
12:30 PM 5.6°F-14.7°C -2.6°F-19.2°C 68% 5.0 mph NNW8.0 kmh NNW -- 30.59 in1035.9 mb 0.00 in0.0 mm 0.00 in0.0 mm 0.00 in0.0 mm
12:35 PM 5.6°F-14.7°C -2.9°F-19.4°C 67% 8.0 mph NW12.9 kmh NW -- 30.59 in1035.9 mb 0.00 in0.0 mm 0.00 in0.0 mm 0.00 in0.0 mm
12:40 PM 5.8°F-14.6°C -2.8°F-19.3°C 67% 9.0 mph NNW14.5 kmh NNW -- 30.59 in1035.9 mb 0.00 in0.0 mm 0.00 in0.0 mm 0.00 in0.0 mm
12:45 PM 5.9°F-14.5°C -2.7°F-19.3°C 67% 6.0 mph NNW9.7 kmh NNW -- 30.59 in1035.9 mb 0.00 in0.0 mm 0.00 in0.0 mm 0.00 in0.0 mm
12:50 PM 6.1°F-14.4°C -2.5°F-19.2°C 67% 6.0 mph NW9.7 kmh NW 11.0 mph17.7 kmh 30.59 in1035.9 mb 0.00 in0.0 mm 0.00 in0.0 mm 0.00 in0.0 mm
12:55 PM 6.0°F-14.4°C -2.9°F-19.4°C 66% 6.0 mph NW9.7 kmh NW 11.0 mph17.7 kmh 30.59 in1035.9 mb 0.00 in0.0 mm 0.00 in0.0 mm 0.00 in0.0 mm
01:00 PM 6.0°F-14.4°C -2.6°F-19.2°C 67% 7.0 mph NW11.3 kmh NW -- 30.60 in1036.2 mb 0.00 in0.0 mm 0.00 in0.0 mm 0.00 in0.0 mm
01:05 PM 6.3°F-14.3°C -2.6°F-19.2°C 66% 4.0 mph NNW6.4 kmh NNW -- 30.59 in1035.9 mb 0.00 in0.0 mm 0.00 in0.0 mm 0.00 in0.0 mm
01:10 PM 6.4°F-14.2°C -2.8°F-19.3°C 65% 3.0 mph NW4.8 kmh NW -- 30.59 in1035.9 mb 0.00 in0.0 mm 0.00 in0.0 mm 0.00 in0.0 mm
01:15 PM 4.8°F-15.1°C -4.7°F-20.4°C 64% 11.0 mph NNW17.7 kmh NNW -- 30.59 in1035.9 mb 0.00 in0.0 mm 0.00 in0.0 mm 0.00 in0.0 mm
01:20 PM 5.1°F-14.9°C -4.1°F-20.1°C 65% 7.0 mph NNW11.3 kmh NNW -- 30.59 in1035.9 mb 0.00 in0.0 mm 0.00 in0.0 mm 0.00 in0.0 mm
01:25 PM 5.2°F-14.9°C -4.3°F-20.2°C 64% 7.0 mph NNE11.3 kmh NNE -- 30.59 in1035.9 mb 0.00 in0.0 mm 0.00 in0.0 mm 0.00 in0.0 mm
01:30 PM 5.3°F-14.8°C -3.9°F-19.9°C 65% 9.0 mph NNW14.5 kmh NNW -- 30.59 in1035.9 mb 0.00 in0.0 mm 0.00 in0.0 mm 0.00 in0.0 mm
01:35 PM 5.5°F-14.7°C -4.0°F-20.0°C 64% 7.0 mph NW11.3 kmh NW -- 30.59 in1035.9 mb 0.00 in0.0 mm 0.00 in0.0 mm 0.00 in0.0 mm
01:40 PM 5.5°F-14.7°C -4.3°F-20.2°C 63% 5.0 mph NW8.0 kmh NW 13.0 mph20.9 kmh 30.59 in1035.9 mb 0.00 in0.0 mm 0.00 in0.0 mm 0.00 in0.0 mm
01:45 PM 5.6°F-14.7°C -4.2°F-20.1°C 63% 8.0 mph NNW12.9 kmh NNW 13.0 mph20.9 kmh 30.59 in1035.9 mb 0.00 in0.0 mm 0.00 in0.0 mm 0.00 in0.0 mm
01:50 PM 5.7°F-14.6°C -3.8°F-19.9°C 64% 12.0 mph NW19.3 kmh NW -- 30.59 in1035.9 mb 0.00 in0.0 mm 0.00 in0.0 mm 0.00 in0.0 mm
01:55 PM 5.7°F-14.6°C -4.1°F-20.1°C 63% 5.0 mph NW8.0 kmh NW -- 30.59 in1035.9 mb 0.00 in0.0 mm 0.00 in0.0 mm 0.00 in0.0 mm
02:00 PM 6.1°F-14.4°C -3.8°F-19.9°C 63% 6.0 mph NNW9.7 kmh NNW -- 30.59 in1035.9 mb 0.00 in0.0 mm 0.00 in0.0 mm 0.00 in0.0 mm
02:05 PM 6.1°F-14.4°C -4.1°F-20.1°C 62% 3.0 mph NW4.8 kmh NW -- 30.59 in1035.9 mb 0.00 in0.0 mm 0.00 in0.0 mm 0.00 in0.0 mm
02:10 PM 6.3°F-14.3°C -4.2°F-20.1°C 61% 8.0 mph NW12.9 kmh NW -- 30.59 in1035.9 mb 0.00 in0.0 mm 0.00 in0.0 mm 0.00 in0.0 mm
02:15 PM 6.2°F-14.3°C -4.3°F-20.2°C 61% 8.0 mph N12.9 kmh N -- 30.59 in1035.9 mb 0.00 in0.0 mm 0.00 in0.0 mm 0.00 in0.0 mm
02:20 PM 6.0°F-14.4°C -4.2°F-20.1°C 62% 6.0 mph N9.7 kmh N -- 30.59 in1035.9 mb 0.00 in0.0 mm 0.00 in0.0 mm 0.00 in0.0 mm
02:25 PM 6.2°F-14.3°C -3.7°F-19.8°C 63% 6.0 mph NW9.7 kmh NW -- 30.59 in1035.9 mb 0.00 in0.0 mm 0.00 in0.0 mm 0.00 in0.0 mm
02:30 PM 6.3°F-14.3°C -3.9°F-19.9°C 62% 12.0 mph N19.3 kmh N 9.0 mph14.5 kmh 30.59 in1035.9 mb 0.00 in0.0 mm 0.00 in0.0 mm 0.00 in0.0 mm
02:35 PM 6.2°F-14.3°C -4.3°F-20.2°C 61% 9.0 mph NW14.5 kmh NW 9.0 mph14.5 kmh 30.59 in1035.9 mb 0.00 in0.0 mm 0.00 in0.0 mm 0.00 in0.0 mm
02:40 PM 6.1°F-14.4°C -4.1°F-20.1°C 62% 11.0 mph NNE17.7 kmh NNE -- 30.60 in1036.2 mb 0.00 in0.0 mm 0.00 in0.0 mm 0.00 in0.0 mm
02:45 PM 6.4°F-14.2°C -4.1°F-20.1°C 61% 4.0 mph NW6.4 kmh NW -- 30.60 in1036.2 mb 0.00 in0.0 mm 0.00 in0.0 mm 0.00 in0.0 mm
02:50 PM 6.7°F-14.1°C -3.9°F-19.9°C 61% 6.0 mph NW9.7 kmh NW -- 30.60 in1036.2 mb 0.00 in0.0 mm 0.00 in0.0 mm 0.00 in0.0 mm
02:55 PM 6.8°F-14.0°C -3.8°F-19.9°C 61% 8.0 mph NW12.9 kmh NW -- 30.60 in1036.2 mb 0.00 in0.0 mm 0.00 in0.0 mm 0.00 in0.0 mm
03:00 PM 7.8°F-13.4°C -2.8°F-19.3°C 61% 8.0 mph NW12.9 kmh NW -- 30.60 in1036.2 mb 0.00 in0.0 mm 0.00 in0.0 mm 0.00 in0.0 mm
03:05 PM 7.7°F-13.5°C -2.9°F-19.4°C 61% 6.0 mph NW9.7 kmh NW -- 30.60 in1036.2 mb 0.00 in0.0 mm 0.00 in0.0 mm 0.00 in0.0 mm
03:10 PM 7.8°F-13.4°C -2.8°F-19.3°C 61% 5.0 mph NW8.0 kmh NW -- 30.60 in1036.2 mb 0.00 in0.0 mm 0.00 in0.0 mm 0.00 in0.0 mm
03:15 PM 8.0°F-13.3°C -2.6°F-19.2°C 61% 6.0 mph NW9.7 kmh NW -- 30.60 in1036.2 mb 0.00 in0.0 mm 0.00 in0.0 mm 0.00 in0.0 mm
03:20 PM 8.0°F-13.3°C -2.6°F-19.2°C 61% 7.0 mph NW11.3 kmh NW 9.0 mph14.5 kmh 30.60 in1036.2 mb 0.00 in0.0 mm 0.00 in0.0 mm 0.00 in0.0 mm
03:25 PM 8.0°F-13.3°C -2.6°F-19.2°C 61% 6.0 mph W9.7 kmh W 9.0 mph14.5 kmh 30.60 in1036.2 mb 0.00 in0.0 mm 0.00 in0.0 mm 0.00 in0.0 mm
03:30 PM 8.1°F-13.3°C -2.9°F-19.4°C 60% 4.0 mph N6.4 kmh N -- 30.60 in1036.2 mb 0.00 in0.0 mm 0.00 in0.0 mm 0.00 in0.0 mm
03:35 PM 8.1°F-13.3°C -3.2°F-19.6°C 59% 5.0 mph NW8.0 kmh NW -- 30.61 in1036.6 mb 0.00 in0.0 mm 0.00 in0.0 mm 0.00 in0.0 mm
03:40 PM 8.1°F-13.3°C -3.2°F-19.6°C 59% 6.0 mph NW9.7 kmh NW -- 30.61 in1036.6 mb 0.00 in0.0 mm 0.00 in0.0 mm 0.00 in0.0 mm
03:45 PM 8.3°F-13.2°C -2.7°F-19.3°C 60% 3.0 mph NNW4.8 kmh NNW -- 30.61 in1036.6 mb 0.00 in0.0 mm 0.00 in0.0 mm 0.00 in0.0 mm
03:50 PM 8.4°F-13.1°C -2.9°F-19.4°C 59% 7.0 mph N11.3 kmh N -- 30.61 in1036.6 mb 0.00 in0.0 mm 0.00 in0.0 mm 0.00 in0.0 mm
03:55 PM 8.4°F-13.1°C -2.9°F-19.4°C 59% 4.0 mph NW6.4 kmh NW -- 30.61 in1036.6 mb 0.00 in0.0 mm 0.00 in0.0 mm 0.00 in0.0 mm
04:00 PM 8.4°F-13.1°C -2.6°F-19.2°C 60% 5.0 mph WNW8.0 kmh WNW -- 30.61 in1036.6 mb 0.00 in0.0 mm 0.00 in0.0 mm 0.00 in0.0 mm
04:05 PM 8.5°F-13.1°C -2.5°F-19.2°C 60% 5.0 mph NW8.0 kmh NW -- 30.61 in1036.6 mb 0.00 in0.0 mm 0.00 in0.0 mm 0.00 in0.0 mm
04:10 PM 8.5°F-13.1°C -2.8°F-19.3°C 59% 4.0 mph NNW6.4 kmh NNW 9.0 mph14.5 kmh 30.61 in1036.6 mb 0.00 in0.0 mm 0.00 in0.0 mm 0.00 in0.0 mm
04:15 PM 8.5°F-13.1°C -2.5°F-19.2°C 60% 4.0 mph N6.4 kmh N 9.0 mph14.5 kmh 30.61 in1036.6 mb 0.00 in0.0 mm 0.00 in0.0 mm 0.00 in0.0 mm
04:20 PM 8.5°F-13.1°C -2.5°F-19.2°C 60% 5.0 mph WNW8.0 kmh WNW -- 30.61 in1036.6 mb 0.00 in0.0 mm 0.00 in0.0 mm 0.00 in0.0 mm
04:25 PM 8.4°F-13.1°C -2.6°F-19.2°C 60% 5.0 mph NW8.0 kmh NW -- 30.61 in1036.6 mb 0.00 in0.0 mm 0.00 in0.0 mm 0.00 in0.0 mm
04:30 PM 8.3°F-13.2°C -2.7°F-19.3°C 60% 4.0 mph NW6.4 kmh NW -- 30.62 in1036.9 mb 0.00 in0.0 mm 0.00 in0.0 mm 0.00 in0.0 mm
04:35 PM 8.3°F-13.2°C -2.7°F-19.3°C 60% 5.0 mph NW8.0 kmh NW -- 30.62 in1036.9 mb 0.00 in0.0 mm 0.00 in0.0 mm 0.00 in0.0 mm
04:40 PM 8.3°F-13.2°C -2.3°F-19.1°C 61% 2.0 mph W3.2 kmh W -- 30.62 in1036.9 mb 0.00 in0.0 mm 0.00 in0.0 mm 0.00 in0.0 mm
04:45 PM 8.3°F-13.2°C -2.3°F-19.1°C 61% 4.0 mph WNW6.4 kmh WNW -- 30.62 in1036.9 mb 0.00 in0.0 mm 0.00 in0.0 mm 0.00 in0.0 mm
04:50 PM 8.2°F-13.2°C -2.4°F-19.1°C 61% 2.0 mph WNW3.2 kmh WNW -- 30.62 in1036.9 mb 0.00 in0.0 mm 0.00 in0.0 mm 0.00 in0.0 mm
04:55 PM 8.3°F-13.2°C -2.3°F-19.1°C 61% 6.0 mph WNW9.7 kmh WNW -- 30.62 in1036.9 mb 0.00 in0.0 mm 0.00 in0.0 mm 0.00 in0.0 mm
05:00 PM 8.1°F-13.3°C -2.5°F-19.2°C 61% 2.0 mph WNW3.2 kmh WNW 7.0 mph11.3 kmh 30.63 in1037.3 mb 0.00 in0.0 mm 0.00 in0.0 mm 0.00 in0.0 mm
05:05 PM 7.9°F-13.4°C -2.7°F-19.3°C 61% 2.0 mph NW3.2 kmh NW 7.0 mph11.3 kmh 30.63 in1037.3 mb 0.00 in0.0 mm 0.00 in0.0 mm 0.00 in0.0 mm
05:10 PM 7.8°F-13.4°C -2.5°F-19.2°C 62% 2.0 mph NW3.2 kmh NW -- 30.63 in1037.3 mb 0.00 in0.0 mm 0.00 in0.0 mm 0.00 in0.0 mm
05:15 PM 7.6°F-13.6°C -3.0°F-19.4°C 61% 1.0 mph NW1.6 kmh NW -- 30.63 in1037.3 mb 0.00 in0.0 mm 0.00 in0.0 mm 0.00 in0.0 mm
05:20 PM 7.4°F-13.7°C -3.2°F-19.6°C 61% 1.0 mph NW1.6 kmh NW -- 30.63 in1037.3 mb 0.00 in0.0 mm 0.00 in0.0 mm 0.00 in0.0 mm
05:25 PM 7.3°F-13.7°C -3.3°F-19.6°C 61% 2.0 mph NW3.2 kmh NW -- 30.63 in1037.3 mb 0.00 in0.0 mm 0.00 in0.0 mm 0.00 in0.0 mm
05:30 PM 7.1°F-13.8°C -3.5°F-19.7°C 61% 4.0 mph NW6.4 kmh NW -- 30.63 in1037.3 mb 0.00 in0.0 mm 0.00 in0.0 mm 0.00 in0.0 mm
05:35 PM 6.9°F-13.9°C -3.7°F-19.8°C 61% 2.0 mph NW3.2 kmh NW -- 30.63 in1037.3 mb 0.00 in0.0 mm 0.00 in0.0 mm 0.00 in0.0 mm
05:40 PM 6.7°F-14.1°C -3.9°F-19.9°C 61% 3.0 mph NW4.8 kmh NW -- 30.64 in1037.6 mb 0.00 in0.0 mm 0.00 in0.0 mm 0.00 in0.0 mm
05:45 PM 6.5°F-14.2°C -4.0°F-20.0°C 61% 1.0 mph NW1.6 kmh NW -- 30.63 in1037.3 mb 0.00 in0.0 mm 0.00 in0.0 mm 0.00 in0.0 mm
05:50 PM 6.4°F-14.2°C -4.1°F-20.1°C 61% 1.0 mph NW1.6 kmh NW 3.0 mph4.8 kmh 30.64 in1037.6 mb 0.00 in0.0 mm 0.00 in0.0 mm 0.00 in0.0 mm
05:55 PM 6.2°F-14.3°C -4.0°F-20.0°C 62% 1.0 mph NW1.6 kmh NW 3.0 mph4.8 kmh 30.64 in1037.6 mb 0.00 in0.0 mm 0.00 in0.0 mm 0.00 in0.0 mm
06:00 PM 6.0°F-14.4°C -4.2°F-20.1°C 62% 2.0 mph NW3.2 kmh NW -- 30.64 in1037.6 mb 0.00 in0.0 mm 0.00 in0.0 mm 0.00 in0.0 mm
06:05 PM 6.0°F-14.4°C -4.2°F-20.1°C 62% 2.0 mph NW3.2 kmh NW -- 30.64 in1037.6 mb 0.00 in0.0 mm 0.00 in0.0 mm 0.00 in0.0 mm
06:10 PM 5.8°F-14.6°C -4.4°F-20.2°C 62% 2.0 mph NW3.2 kmh NW -- 30.64 in1037.6 mb 0.00 in0.0 mm 0.00 in0.0 mm 0.00 in0.0 mm
06:15 PM 5.7°F-14.6°C -4.5°F-20.3°C 62% 2.0 mph NW3.2 kmh NW -- 30.64 in1037.6 mb 0.00 in0.0 mm 0.00 in0.0 mm 0.00 in0.0 mm
06:20 PM 5.5°F-14.7°C -4.3°F-20.2°C 63% Calm Calm -- 30.64 in1037.6 mb 0.00 in0.0 mm 0.00 in0.0 mm 0.00 in0.0 mm
06:25 PM 5.2°F-14.9°C -4.6°F-20.3°C 63% 1.0 mph NW1.6 kmh NW -- 30.64 in1037.6 mb 0.00 in0.0 mm 0.00 in0.0 mm 0.00 in0.0 mm
06:30 PM 4.9°F-15.1°C -4.9°F-20.5°C 63% Calm Calm -- 30.64 in1037.6 mb 0.00 in0.0 mm 0.00 in0.0 mm 0.00 in0.0 mm
06:35 PM 4.8°F-15.1°C -4.7°F-20.4°C 64% 1.0 mph NW1.6 kmh NW -- 30.64 in1037.6 mb 0.00 in0.0 mm 0.00 in0.0 mm 0.00 in0.0 mm
06:40 PM 4.4°F-15.3°C -5.0°F-20.6°C 64% 2.0 mph NW3.2 kmh NW 3.0 mph4.8 kmh 30.64 in1037.6 mb 0.00 in0.0 mm 0.00 in0.0 mm 0.00 in0.0 mm
06:45 PM 4.1°F-15.5°C -5.0°F-20.6°C 65% 3.0 mph NW4.8 kmh NW 3.0 mph4.8 kmh 30.64 in1037.6 mb 0.00 in0.0 mm 0.00 in0.0 mm 0.00 in0.0 mm
06:50 PM 4.0°F-15.6°C -5.1°F-20.6°C 65% 2.0 mph NW3.2 kmh NW -- 30.64 in1037.6 mb 0.00 in0.0 mm 0.00 in0.0 mm 0.00 in0.0 mm
06:55 PM 4.2°F-15.4°C -4.6°F-20.3°C 66% 3.0 mph NW4.8 kmh NW -- 30.64 in1037.6 mb 0.00 in0.0 mm 0.00 in0.0 mm 0.00 in0.0 mm
07:00 PM 4.4°F-15.3°C -4.7°F-20.4°C 65% 4.0 mph NW6.4 kmh NW -- 30.65 in1037.9 mb 0.00 in0.0 mm 0.00 in0.0 mm 0.00 in0.0 mm
07:05 PM 4.6°F-15.2°C -4.5°F-20.3°C 65% 3.0 mph NW4.8 kmh NW -- 30.65 in1037.9 mb 0.00 in0.0 mm 0.00 in0.0 mm 0.00 in0.0 mm
07:10 PM 4.1°F-15.5°C -5.3°F-20.7°C 64% 1.0 mph NW1.6 kmh NW -- 30.65 in1037.9 mb 0.00 in0.0 mm 0.00 in0.0 mm 0.00 in0.0 mm
07:15 PM 3.5°F-15.8°C -5.6°F-20.9°C 65% 2.0 mph WNW3.2 kmh WNW -- 30.65 in1037.9 mb 0.00 in0.0 mm 0.00 in0.0 mm 0.00 in0.0 mm
07:20 PM 3.3°F-15.9°C -5.8°F-21.0°C 65% 2.0 mph WNW3.2 kmh WNW -- 30.65 in1037.9 mb 0.00 in0.0 mm 0.00 in0.0 mm 0.00 in0.0 mm
07:25 PM 3.3°F-15.9°C -6.1°F-21.2°C 64% 4.0 mph NW6.4 kmh NW -- 30.65 in1037.9 mb 0.00 in0.0 mm 0.00 in0.0 mm 0.00 in0.0 mm
07:30 PM 3.2°F-16.0°C -5.9°F-21.1°C 65% 4.0 mph NW6.4 kmh NW 7.0 mph11.3 kmh 30.65 in1037.9 mb 0.00 in0.0 mm 0.00 in0.0 mm 0.00 in0.0 mm
07:35 PM 3.2°F-16.0°C -6.2°F-21.2°C 64% 2.0 mph NW3.2 kmh NW 7.0 mph11.3 kmh 30.66 in1038.3 mb 0.00 in0.0 mm 0.00 in0.0 mm 0.00 in0.0 mm
07:40 PM 3.1°F-16.1°C -6.0°F-21.1°C 65% 4.0 mph NW6.4 kmh NW -- 30.66 in1038.3 mb 0.00 in0.0 mm 0.00 in0.0 mm 0.00 in0.0 mm
07:45 PM 3.0°F-16.1°C -6.1°F-21.2°C 65% 4.0 mph NW6.4 kmh NW -- 30.66 in1038.3 mb 0.00 in0.0 mm 0.00 in0.0 mm 0.00 in0.0 mm
07:50 PM 2.9°F-16.2°C -6.2°F-21.2°C 65% 6.0 mph WNW9.7 kmh WNW -- 30.66 in1038.3 mb 0.00 in0.0 mm 0.00 in0.0 mm 0.00 in0.0 mm
07:55 PM 2.7°F-16.3°C -6.4°F-21.3°C 65% 4.0 mph WNW6.4 kmh WNW -- 30.66 in1038.3 mb 0.00 in0.0 mm 0.00 in0.0 mm 0.00 in0.0 mm
08:00 PM 2.5°F-16.4°C -6.5°F-21.4°C 65% 4.0 mph NW6.4 kmh NW -- 30.66 in1038.3 mb 0.00 in0.0 mm 0.00 in0.0 mm 0.00 in0.0 mm
08:05 PM 2.3°F-16.5°C -6.4°F-21.3°C 66% 6.0 mph NW9.7 kmh NW -- 30.66 in1038.3 mb 0.00 in0.0 mm 0.00 in0.0 mm 0.00 in0.0 mm
08:10 PM 2.1°F-16.6°C -6.6°F-21.4°C 66% 3.0 mph NW4.8 kmh NW -- 30.67 in1038.6 mb 0.00 in0.0 mm 0.00 in0.0 mm 0.00 in0.0 mm
08:15 PM 1.9°F-16.7°C -6.8°F-21.6°C 66% 6.0 mph NW9.7 kmh NW -- 30.67 in1038.6 mb 0.00 in0.0 mm 0.00 in0.0 mm 0.00 in0.0 mm
08:20 PM 1.5°F-16.9°C -7.2°F-21.8°C 66% 5.0 mph WNW8.0 kmh WNW 6.0 mph9.7 kmh 30.67 in1038.6 mb 0.00 in0.0 mm 0.00 in0.0 mm 0.00 in0.0 mm
08:25 PM 1.1°F-17.2°C -7.3°F-21.8°C 67% 1.0 mph WNW1.6 kmh WNW 6.0 mph9.7 kmh 30.67 in1038.6 mb 0.00 in0.0 mm 0.00 in0.0 mm 0.00 in0.0 mm
08:30 PM 1.1°F-17.2°C -6.7°F-21.5°C 69% 4.0 mph WNW6.4 kmh WNW -- 30.67 in1038.6 mb 0.00 in0.0 mm 0.00 in0.0 mm 0.00 in0.0 mm
08:35 PM 1.3°F-17.1°C -6.5°F-21.4°C 69% 6.0 mph NW9.7 kmh NW -- 30.68 in1038.9 mb 0.00 in0.0 mm 0.00 in0.0 mm 0.00 in0.0 mm
08:40 PM 1.3°F-17.1°C -6.5°F-21.4°C 69% 5.0 mph NW8.0 kmh NW -- 30.68 in1038.9 mb 0.00 in0.0 mm 0.00 in0.0 mm 0.00 in0.0 mm
08:45 PM 1.4°F-17.0°C -6.4°F-21.3°C 69% 6.0 mph NW9.7 kmh NW -- 30.68 in1038.9 mb 0.00 in0.0 mm 0.00 in0.0 mm 0.00 in0.0 mm
08:50 PM 1.5°F-16.9°C -6.3°F-21.3°C 69% 6.0 mph NW9.7 kmh NW -- 30.68 in1038.9 mb 0.00 in0.0 mm 0.00 in0.0 mm 0.00 in0.0 mm
08:55 PM 1.6°F-16.9°C -6.2°F-21.2°C 69% 8.0 mph WNW12.9 kmh WNW -- 30.68 in1038.9 mb 0.00 in0.0 mm 0.00 in0.0 mm 0.00 in0.0 mm
09:00 PM 1.5°F-16.9°C -6.3°F-21.3°C 69% 8.0 mph NW12.9 kmh NW -- 30.68 in1038.9 mb 0.00 in0.0 mm 0.00 in0.0 mm 0.00 in0.0 mm
09:05 PM 1.4°F-17.0°C -6.4°F-21.3°C 69% 8.0 mph NW12.9 kmh NW -- 30.68 in1038.9 mb 0.00 in0.0 mm 0.00 in0.0 mm 0.00 in0.0 mm
09:10 PM 1.2°F-17.1°C -6.3°F-21.3°C 70% 6.0 mph WNW9.7 kmh WNW 9.0 mph14.5 kmh 30.68 in1038.9 mb 0.00 in0.0 mm 0.00 in0.0 mm 0.00 in0.0 mm
09:15 PM 1.0°F-17.2°C -6.5°F-21.4°C 70% 5.0 mph WNW8.0 kmh WNW 9.0 mph14.5 kmh 30.68 in1038.9 mb 0.00 in0.0 mm 0.00 in0.0 mm 0.00 in0.0 mm
09:20 PM 1.0°F-17.2°C -6.2°F-21.2°C 71% 8.0 mph NW12.9 kmh NW -- 30.68 in1038.9 mb 0.00 in0.0 mm 0.00 in0.0 mm 0.00 in0.0 mm
09:25 PM 1.1°F-17.2°C -6.1°F-21.2°C 71% 6.0 mph NNW9.7 kmh NNW -- 30.68 in1038.9 mb 0.00 in0.0 mm 0.00 in0.0 mm 0.00 in0.0 mm
09:30 PM 1.1°F-17.2°C -6.1°F-21.2°C 71% 6.0 mph NNW9.7 kmh NNW -- 30.68 in1038.9 mb 0.00 in0.0 mm 0.00 in0.0 mm 0.00 in0.0 mm
09:35 PM 1.2°F-17.1°C -6.0°F-21.1°C 71% 6.0 mph NW9.7 kmh NW -- 30.68 in1038.9 mb 0.00 in0.0 mm 0.00 in0.0 mm 0.00 in0.0 mm
09:40 PM 1.1°F-17.2°C -6.1°F-21.2°C 71% 2.0 mph NW3.2 kmh NW -- 30.68 in1038.9 mb 0.00 in0.0 mm 0.00 in0.0 mm 0.00 in0.0 mm
09:45 PM 1.0°F-17.2°C -6.2°F-21.2°C 71% 5.0 mph NW8.0 kmh NW -- 30.68 in1038.9 mb 0.00 in0.0 mm 0.00 in0.0 mm 0.00 in0.0 mm
09:50 PM 0.8°F-17.3°C -6.4°F-21.3°C 71% 4.0 mph WNW6.4 kmh WNW -- 30.68 in1038.9 mb 0.00 in0.0 mm 0.00 in0.0 mm 0.00 in0.0 mm
09:55 PM 0.8°F-17.3°C -6.1°F-21.2°C 72% 4.0 mph NW6.4 kmh NW -- 30.67 in1038.6 mb 0.00 in0.0 mm 0.00 in0.0 mm 0.00 in0.0 mm
10:00 PM 0.7°F-17.4°C -6.2°F-21.2°C 72% 8.0 mph WNW12.9 kmh WNW 11.0 mph17.7 kmh 30.68 in1038.9 mb 0.00 in0.0 mm 0.00 in0.0 mm 0.00 in0.0 mm
10:05 PM 0.6°F-17.4°C -6.3°F-21.3°C 72% 3.0 mph NNW4.8 kmh NNW 11.0 mph17.7 kmh 30.68 in1038.9 mb 0.00 in0.0 mm 0.00 in0.0 mm 0.00 in0.0 mm
10:10 PM 0.5°F-17.5°C -6.4°F-21.3°C 72% 5.0 mph NW8.0 kmh NW -- 30.68 in1038.9 mb 0.00 in0.0 mm 0.00 in0.0 mm 0.00 in0.0 mm
10:15 PM 0.4°F-17.6°C -6.5°F-21.4°C 72% 6.0 mph NW9.7 kmh NW -- 30.68 in1038.9 mb 0.00 in0.0 mm 0.00 in0.0 mm 0.00 in0.0 mm
10:20 PM 0.5°F-17.5°C -6.1°F-21.2°C 73% 6.0 mph NW9.7 kmh NW -- 30.67 in1038.6 mb 0.00 in0.0 mm 0.00 in0.0 mm 0.00 in0.0 mm
10:25 PM 0.3°F-17.6°C -6.3°F-21.3°C 73% 4.0 mph NW6.4 kmh NW -- 30.67 in1038.6 mb 0.00 in0.0 mm 0.00 in0.0 mm 0.00 in0.0 mm
10:30 PM 0.0°F-17.8°C -6.6°F-21.4°C 73% 3.0 mph NW4.8 kmh NW -- 30.67 in1038.6 mb 0.00 in0.0 mm 0.00 in0.0 mm 0.00 in0.0 mm
10:35 PM -0.1°F-17.8°C -6.7°F-21.5°C 73% 4.0 mph NW6.4 kmh NW -- 30.67 in1038.6 mb 0.00 in0.0 mm 0.00 in0.0 mm 0.00 in0.0 mm
10:40 PM 0.0°F-17.8°C -6.3°F-21.3°C 74% 5.0 mph NW8.0 kmh NW -- 30.68 in1038.9 mb 0.00 in0.0 mm 0.00 in0.0 mm 0.00 in0.0 mm
10:45 PM 0.0°F-17.8°C -6.3°F-21.3°C 74% 4.0 mph WNW6.4 kmh WNW -- 30.68 in1038.9 mb 0.00 in0.0 mm 0.00 in0.0 mm 0.00 in0.0 mm
10:50 PM 0.0°F-17.8°C -6.3°F-21.3°C 74% 10.0 mph NNW16.1 kmh NNW 8.0 mph12.9 kmh 30.68 in1038.9 mb 0.00 in0.0 mm 0.00 in0.0 mm 0.00 in0.0 mm
10:55 PM -0.1°F-17.8°C -6.4°F-21.3°C 74% 5.0 mph NNW8.0 kmh NNW 8.0 mph12.9 kmh 30.68 in1038.9 mb 0.00 in0.0 mm 0.00 in0.0 mm 0.00 in0.0 mm
11:00 PM -0.3°F-17.9°C -6.6°F-21.4°C 74% 7.0 mph NW11.3 kmh NW -- 30.68 in1038.9 mb 0.00 in0.0 mm 0.00 in0.0 mm 0.00 in0.0 mm
11:05 PM -0.4°F-18.0°C -6.7°F-21.5°C 74% 4.0 mph WNW6.4 kmh WNW -- 30.68 in1038.9 mb 0.00 in0.0 mm 0.00 in0.0 mm 0.00 in0.0 mm
11:10 PM -0.4°F-18.0°C -6.7°F-21.5°C 74% 5.0 mph NW8.0 kmh NW -- 30.68 in1038.9 mb 0.00 in0.0 mm 0.00 in0.0 mm 0.00 in0.0 mm
11:15 PM -0.5°F-18.1°C -6.8°F-21.6°C 74% 6.0 mph NW9.7 kmh NW -- 30.68 in1038.9 mb 0.00 in0.0 mm 0.00 in0.0 mm 0.00 in0.0 mm
11:20 PM -0.4°F-18.0°C -6.7°F-21.5°C 74% 4.0 mph NW6.4 kmh NW -- 30.68 in1038.9 mb 0.00 in0.0 mm 0.00 in0.0 mm 0.00 in0.0 mm
11:25 PM -0.5°F-18.1°C -6.8°F-21.6°C 74% 5.0 mph NW8.0 kmh NW -- 30.69 in1039.3 mb 0.00 in0.0 mm 0.00 in0.0 mm 0.00 in0.0 mm
11:30 PM -0.6°F-18.1°C -6.9°F-21.6°C 74% 2.0 mph NW3.2 kmh NW -- 30.69 in1039.3 mb 0.00 in0.0 mm 0.00 in0.0 mm 0.00 in0.0 mm
11:35 PM -0.8°F-18.2°C -7.1°F-21.7°C 74% Calm Calm -- 30.69 in1039.3 mb 0.00 in0.0 mm 0.00 in0.0 mm 0.00 in0.0 mm
11:40 PM -1.1°F-18.4°C -7.3°F-21.8°C 74% 2.0 mph WNW3.2 kmh WNW 5.0 mph8.0 kmh 30.69 in1039.3 mb 0.00 in0.0 mm 0.00 in0.0 mm 0.00 in0.0 mm
11:45 PM -0.1°F-17.8°C -6.7°F-21.5°C 73% 1.0 mph NW1.6 kmh NW 5.0 mph8.0 kmh 30.69 in1039.3 mb 0.00 in0.0 mm 0.00 in0.0 mm 0.00 in0.0 mm
11:50 PM -0.3°F-17.9°C -6.9°F-21.6°C 73% 1.0 mph NW1.6 kmh NW -- 30.69 in1039.3 mb 0.00 in0.0 mm 0.00 in0.0 mm 0.00 in0.0 mm
11:55 PM -0.4°F-18.0°C -6.7°F-21.5°C 74% 2.0 mph NW3.2 kmh NW -- 30.69 in1039.3 mb 0.00 in0.0 mm 0.00 in0.0 mm 0.00 in0.0 mm